createdAt,value
2019-01-12T00:04:08.780Z,19.17
2019-01-12T00:09:12.528Z,18.60
2019-01-12T00:14:15.892Z,18.43
2019-01-12T00:19:19.420Z,21.67
2019-01-12T00:24:23.193Z,19.03
2019-01-12T00:29:26.584Z,20.10
2019-01-12T00:34:29.977Z,18.37
2019-01-12T00:39:33.373Z,19.43
2019-01-12T00:44:36.792Z,21.37
2019-01-12T00:49:40.187Z,20.40
2019-01-12T00:54:43.571Z,18.30
2019-01-12T00:59:46.979Z,18.73
2019-01-12T01:04:50.374Z,19.67
2019-01-12T01:09:53.769Z,21.40
2019-01-12T01:14:57.164Z,19.10
2019-01-12T01:20:00.889Z,21.23
2019-01-12T01:25:06.393Z,18.67
2019-01-12T01:30:13.332Z,19.37
2019-01-12T01:35:16.739Z,20.37
2019-01-12T01:40:20.128Z,17.80
2019-01-12T01:45:23.920Z,20.17
2019-01-12T01:50:27.607Z,20.47
2019-01-12T01:55:31.012Z,18.77
2019-01-12T02:00:34.410Z,18.63
2019-01-12T02:05:38.196Z,20.83
2019-01-12T02:10:41.592Z,21.33
2019-01-12T02:15:45.446Z,19.70
2019-01-12T02:20:48.840Z,22.40
2019-01-12T02:25:52.552Z,19.33
2019-01-12T02:30:55.949Z,14.67
2019-01-12T02:35:59.362Z,21.73
2019-01-12T02:41:02.757Z,24.00
2019-01-12T02:46:06.152Z,23.07
2019-01-12T02:51:09.558Z,24.50
2019-01-12T02:56:13.297Z,22.57
2019-01-12T03:01:16.749Z,22.33
2019-01-12T03:06:20.149Z,22.37
2019-01-12T03:11:23.551Z,22.23
2019-01-12T03:16:26.947Z,19.00
2019-01-12T03:21:30.341Z,21.80
2019-01-12T03:26:34.108Z,24.43
2019-01-12T03:31:37.510Z,24.23
2019-01-12T03:36:40.982Z,23.93
2019-01-12T03:41:44.381Z,26.03
2019-01-12T03:46:47.796Z,22.03
2019-01-12T03:51:51.208Z,25.40
2019-01-12T03:56:54.614Z,22.87
2019-01-12T04:01:58.341Z,23.73
2019-01-12T04:07:01.736Z,21.47
2019-01-12T04:12:05.144Z,21.47
2019-01-12T04:17:08.557Z,25.52
2019-01-12T04:22:11.964Z,22.47
2019-01-12T04:27:15.365Z,22.23
2019-01-12T04:32:19.121Z,25.15
2019-01-12T04:37:22.529Z,24.87
2019-01-12T04:42:25.933Z,23.50
2019-01-12T04:47:29.554Z,26.37
2019-01-12T04:52:32.966Z,22.80
2019-01-12T04:57:36.382Z,23.70
2019-01-12T05:02:39.805Z,23.80
2019-01-12T05:07:43.326Z,23.60
2019-01-12T05:12:46.729Z,22.70
2019-01-12T05:17:50.146Z,20.67
2019-01-12T05:22:53.594Z,21.03
2019-01-12T05:27:56.977Z,20.03
2019-01-12T05:33:00.792Z,23.17
2019-01-12T05:38:04.194Z,18.87
2019-01-12T05:43:08.226Z,16.97
2019-01-12T05:48:11.669Z,21.03
2019-01-12T05:53:15.094Z,25.73
2019-01-12T05:58:18.902Z,26.93
2019-01-12T06:03:22.621Z,26.50
2019-01-12T06:08:26.028Z,31.53
2019-01-12T06:13:29.438Z,26.53
2019-01-12T06:18:33.174Z,31.53
2019-01-12T06:23:36.627Z,25.90
2019-01-12T06:28:40.021Z,29.85
2019-01-12T06:33:43.432Z,33.27
2019-01-12T06:38:47.486Z,28.73
2019-01-12T06:43:50.881Z,25.87
2019-01-12T06:48:54.306Z,27.73
2019-01-12T06:53:57.729Z,31.03
2019-01-12T06:59:01.411Z,27.23
2019-01-12T07:04:04.818Z,29.82
2019-01-12T07:09:08.239Z,25.83
2019-01-12T07:14:11.761Z,25.73
2019-01-12T07:19:15.175Z,24.93
2019-01-12T07:24:18.597Z,32.93
2019-01-12T07:29:22.301Z,29.97
2019-01-12T07:34:25.697Z,25.63
2019-01-12T07:39:29.461Z,24.27
2019-01-12T07:44:32.879Z,24.93
2019-01-12T07:49:36.322Z,20.87
2019-01-12T07:54:39.737Z,23.30
2019-01-12T07:59:43.441Z,22.17
2019-01-12T08:04:46.872Z,25.43
2019-01-12T08:09:50.270Z,28.67
2019-01-12T08:14:54.029Z,31.10
2019-01-12T08:19:57.458Z,35.20
2019-01-12T08:25:00.878Z,31.33
2019-01-12T08:30:10.612Z,30.07
2019-01-12T08:35:14.607Z,30.23
2019-01-12T08:40:18.001Z,27.23
2019-01-12T08:45:21.184Z,38.97
2019-01-12T08:50:24.590Z,42.55
2019-01-12T08:55:27.998Z,23.90
2019-01-12T09:00:31.409Z,22.13
2019-01-12T09:05:34.825Z,27.17
2019-01-12T09:10:38.248Z,22.53
2019-01-12T09:15:42.101Z,27.03
2019-01-12T09:20:45.525Z,33.10
2019-01-12T09:25:49.246Z,25.30
2019-01-12T09:30:52.983Z,22.90
2019-01-12T09:35:56.386Z,25.10
2019-01-12T09:40:59.793Z,34.50
2019-01-12T09:46:03.249Z,12.87
2019-01-12T09:51:07.019Z,10.90
2019-01-12T09:56:10.782Z,15.40
2019-01-12T10:01:14.561Z,17.50
2019-01-12T10:06:17.970Z,15.60
2019-01-12T10:11:21.386Z,16.10
2019-01-12T10:16:24.777Z,16.43
2019-01-12T10:21:28.570Z,15.73
2019-01-12T10:26:32.262Z,16.53
2019-01-12T10:31:35.695Z,19.03
2019-01-12T10:36:39.109Z,17.50
2019-01-12T10:41:42.540Z,11.73
2019-01-12T10:46:45.977Z,12.10
2019-01-12T10:51:49.401Z,12.47
2019-01-12T10:56:52.835Z,11.97
2019-01-12T11:01:56.245Z,12.30
2019-01-12T11:06:59.655Z,13.53
2019-01-12T11:12:03.463Z,12.50
2019-01-12T11:17:07.234Z,13.57
2019-01-12T11:22:10.645Z,13.53
2019-01-12T11:27:14.044Z,12.50
2019-01-12T11:32:17.481Z,14.93
2019-01-12T11:37:20.898Z,14.80
2019-01-12T11:42:24.325Z,15.10
2019-01-12T11:47:27.726Z,15.07
2019-01-12T11:52:31.514Z,12.90
2019-01-12T11:57:34.932Z,17.60
2019-01-12T12:02:38.337Z,15.07
2019-01-12T12:07:41.827Z,14.03
2019-01-12T12:12:45.242Z,11.47
2019-01-12T12:17:48.685Z,13.13
2019-01-12T12:22:52.085Z,10.70
2019-01-12T12:27:55.802Z,12.10
2019-01-12T12:32:59.207Z,11.07
2019-01-12T12:38:02.604Z,13.50
2019-01-12T12:43:06.048Z,12.13
2019-01-12T12:48:09.455Z,13.50
2019-01-12T12:53:12.858Z,11.45
2019-01-12T12:58:16.279Z,8.57
2019-01-12T13:03:20.092Z,9.83
2019-01-12T13:08:23.784Z,8.67
2019-01-12T13:13:27.189Z,10.40
2019-01-12T13:18:30.589Z,8.73
2019-01-12T13:23:33.990Z,9.05
2019-01-12T13:28:37.786Z,10.60
2019-01-12T13:33:41.262Z,10.53
2019-01-12T13:38:44.662Z,10.27
2019-01-12T13:43:48.446Z,9.70
2019-01-12T13:48:52.152Z,12.03
2019-01-12T13:53:55.539Z,10.57
2019-01-12T13:58:58.934Z,16.20
2019-01-12T14:04:02.897Z,13.00
2019-01-12T14:09:07.834Z,11.70
2019-01-12T14:14:11.288Z,10.53
2019-01-12T14:19:14.918Z,11.53
2019-01-12T14:24:18.329Z,12.73
2019-01-12T14:29:22.693Z,10.87
2019-01-12T14:34:26.412Z,12.47
2019-01-12T14:39:30.350Z,19.87
2019-01-12T14:44:33.726Z,11.67
2019-01-12T14:49:37.445Z,12.23
2019-01-12T14:54:40.854Z,12.50
2019-01-12T14:59:44.259Z,11.97
2019-01-12T15:04:48.066Z,12.07
2019-01-12T15:09:51.445Z,14.03
2019-01-12T15:14:54.845Z,10.95
2019-01-12T15:19:58.292Z,9.27
2019-01-12T15:25:01.708Z,10.97
2019-01-12T15:30:14.323Z,8.60
2019-01-12T15:35:18.553Z,9.97
2019-01-12T15:40:23.140Z,10.53
2019-01-12T15:45:27.023Z,11.73
2019-01-12T15:50:30.436Z,10.70
2019-01-12T15:55:34.202Z,11.55
2019-01-12T16:00:37.606Z,11.83
2019-01-12T16:05:41.072Z,16.90
2019-01-12T16:10:44.478Z,23.43
2019-01-12T16:15:48.204Z,21.70
2019-01-12T16:20:51.620Z,27.10
2019-01-12T16:25:55.135Z,26.93
2019-01-12T16:30:58.572Z,13.40
2019-01-12T16:36:02.358Z,31.23
2019-01-12T16:41:05.766Z,14.27
2019-01-12T16:46:09.458Z,17.93
2019-01-12T16:51:12.858Z,18.00
2019-01-12T16:56:16.281Z,18.23
2019-01-12T17:01:19.685Z,22.00
2019-01-12T17:06:23.109Z,16.77
2019-01-12T17:11:26.922Z,23.27
2019-01-12T17:16:30.386Z,14.77
2019-01-12T17:21:34.102Z,18.63
2019-01-12T17:26:37.831Z,14.10
2019-01-12T17:31:41.321Z,21.20
2019-01-12T17:36:45.545Z,17.93
2019-01-12T17:41:49.040Z,15.00
2019-01-12T17:46:52.950Z,13.83
2019-01-12T17:51:56.693Z,15.50
2019-01-12T17:57:00.097Z,16.77
2019-01-12T18:02:03.514Z,15.40
2019-01-12T18:07:06.968Z,14.57
2019-01-12T18:12:10.504Z,13.62
2019-01-12T18:17:13.960Z,14.13
2019-01-12T18:22:17.496Z,14.00
2019-01-12T18:27:20.901Z,13.60
2019-01-12T18:32:24.382Z,15.23
2019-01-12T18:37:27.822Z,12.23
2019-01-12T18:42:31.293Z,9.40
2019-01-12T18:47:34.738Z,12.25
2019-01-12T18:52:38.162Z,14.40
2019-01-12T18:57:41.557Z,17.53
2019-01-12T19:02:44.958Z,13.90
2019-01-12T19:07:48.368Z,14.03
2019-01-12T19:12:52.085Z,14.63
2019-01-12T19:17:55.490Z,13.17
2019-01-12T19:22:58.898Z,14.90
2019-01-12T19:28:02.309Z,14.07
2019-01-12T19:33:05.701Z,15.93
2019-01-12T19:38:09.106Z,15.87
2019-01-12T19:43:12.512Z,14.47
2019-01-12T19:48:15.926Z,10.97
2019-01-12T19:53:20.529Z,11.83
2019-01-12T19:58:23.933Z,12.77
2019-01-12T20:03:27.338Z,12.60
2019-01-12T20:08:31.207Z,13.00
2019-01-12T20:13:35.781Z,12.77
2019-01-12T20:18:39.859Z,13.33
2019-01-12T20:23:43.961Z,13.13
2019-01-12T20:28:47.526Z,14.07
2019-01-12T20:34:00.337Z,12.03
2019-01-12T20:39:18.742Z,11.67
2019-01-12T20:44:40.620Z,12.43
2019-01-12T20:49:47.617Z,11.33
2019-01-12T20:55:18.651Z,10.70
2019-01-12T21:00:42.119Z,10.10
2019-01-12T21:05:48.797Z,9.80
2019-01-12T21:10:58.344Z,9.30
2019-01-12T21:16:06.386Z,7.93
2019-01-12T21:21:09.830Z,7.77
2019-01-12T21:26:13.342Z,7.70
2019-01-12T21:31:16.786Z,8.00
2019-01-12T21:36:21.213Z,5.70
2019-01-12T21:41:24.918Z,6.83
2019-01-12T21:46:28.766Z,9.28
2019-01-12T21:51:32.214Z,9.47
2019-01-12T21:56:35.694Z,8.53
2019-01-12T22:01:39.117Z,6.93
2019-01-12T22:06:43.051Z,6.47
2019-01-12T22:11:46.543Z,6.33
2019-01-12T22:16:50.506Z,10.10
2019-01-12T22:21:54.352Z,8.37
2019-01-12T22:26:57.874Z,7.60
2019-01-12T22:32:01.738Z,7.62
2019-01-12T22:37:05.176Z,6.43
2019-01-12T22:42:08.641Z,7.22
2019-01-12T22:47:12.093Z,6.87
2019-01-12T22:52:16.040Z,7.00
2019-01-12T22:57:19.576Z,6.60
2019-01-12T23:02:23.378Z,5.97
2019-01-12T23:07:26.902Z,6.87
2019-01-12T23:12:30.337Z,6.27
2019-01-12T23:17:33.819Z,6.07
2019-01-12T23:22:37.251Z,8.10
2019-01-12T23:27:40.711Z,7.03
2019-01-12T23:32:44.165Z,7.60
2019-01-12T23:37:47.630Z,6.50
2019-01-12T23:42:51.026Z,4.80
2019-01-12T23:47:54.466Z,6.40
2019-01-12T23:52:58.226Z,6.17
2019-01-12T23:58:01.663Z,4.53
